Millers River @ Winchendon, Ma

Millers River at Winchendon
 Total Drainage Area: 82 sq. miles 
 Drainage Area Controlled by Corps Dams: ?? sq. miles (??%) 
 Warning Flow/Stage: ?? cfs / ?? feet 
 Flood Flow/Stage: ?? cfs / ?? feet 
Date Time
(Eastern)
Stage
(ft)
Flow
(cfs)
CSM
(cfs / sq. mi.)
Jun-16 08:00 pm 4.13 46 .6
Jun-16 07:00 pm 4.14 48 .6
Jun-16 06:00 pm 4.14 48 .6
Jun-16 05:00 pm 4.14 48 .6
Jun-16 04:00 pm 4.13 46 .6
Jun-16 03:00 pm 4.13 46 .6
Jun-16 02:00 pm 4.12 45 .6
Jun-16 01:00 pm 4.08 40 .5
Jun-16 12:00 pm 4.04 35 .4
Jun-16 11:00 am 4.05 37 .5
Jun-16 10:00 am 4.10 43 .5
Jun-16 09:00 am 4.14 48 .6
Jun-16 08:00 am 4.15 49 .6
Jun-16 07:00 am 4.15 49 .6
Jun-16 06:00 am 4.15 49 .6
Jun-16 05:00 am 4.15 49 .6
Jun-16 04:00 am 4.15 49 .6
Jun-16 03:00 am 4.15 49 .6
Jun-16 02:00 am 4.15 49 .6
Jun-16 01:00 am 4.15 49 .6
Jun-16 12:00 am 4.15 49 .6
Jun-15 11:00 pm 4.15 49 .6
Jun-15 10:00 pm 4.15 49 .6
Jun-15 09:00 pm 4.15 49 .6
Jun-15 08:00 pm 4.16 50 .6
Report Generated June 17, 2024 12:44 am